createdAt,value
2024-02-29T00:01:22.829Z,9.50
2024-02-29T00:03:51.070Z,9.50
2024-02-29T00:06:19.148Z,9.50
2024-02-29T00:08:47.484Z,9.50
2024-02-29T00:11:15.632Z,9.50
2024-02-29T00:13:45.085Z,9.50
2024-02-29T00:16:13.369Z,9.50
2024-02-29T00:18:41.720Z,9.50
2024-02-29T00:21:09.834Z,9.50
2024-02-29T00:23:37.882Z,9.50
2024-02-29T00:26:07.466Z,9.50
2024-02-29T00:28:35.646Z,9.50
2024-02-29T00:31:05.849Z,9.50
2024-02-29T00:33:34.507Z,9.50
2024-02-29T00:36:09.226Z,9.60
2024-02-29T00:38:38.272Z,9.60
2024-02-29T00:41:06.446Z,9.60
2024-02-29T00:43:34.532Z,9.60
2024-02-29T00:46:04.225Z,9.60
2024-02-29T00:48:32.385Z,9.60
2024-02-29T00:51:00.462Z,9.60
2024-02-29T00:53:28.555Z,9.60
2024-02-29T00:55:56.631Z,9.60
2024-02-29T00:58:24.700Z,9.60
2024-02-29T01:00:52.826Z,9.60
2024-02-29T01:03:22.367Z,9.60
2024-02-29T01:05:50.468Z,9.60
2024-02-29T01:08:18.494Z,9.60
2024-02-29T01:10:46.895Z,9.60
2024-02-29T01:13:15.224Z,9.60
2024-02-29T01:15:43.385Z,9.60
2024-02-29T01:18:11.552Z,9.60
2024-02-29T01:20:41.056Z,9.70
2024-02-29T01:23:09.261Z,9.70
2024-02-29T01:25:37.432Z,9.70
2024-02-29T01:28:05.827Z,9.70
2024-02-29T01:30:34.016Z,9.70
2024-02-29T01:33:02.134Z,9.80
2024-02-29T01:35:30.705Z,9.80
2024-02-29T01:38:00.120Z,9.80
2024-02-29T01:40:28.210Z,9.80
2024-02-29T01:42:56.247Z,9.80
2024-02-29T01:45:24.458Z,9.80
2024-02-29T01:47:52.505Z,9.80
2024-02-29T01:50:21.876Z,9.80
2024-02-29T01:52:50.737Z,9.80
2024-02-29T01:55:20.372Z,9.80
2024-02-29T01:57:48.617Z,9.80
2024-02-29T02:00:17.949Z,9.80
2024-02-29T02:02:46.665Z,9.80
2024-02-29T02:05:14.804Z,9.90
2024-02-29T02:07:45.273Z,9.80
2024-02-29T02:10:13.775Z,9.80
2024-02-29T02:12:45.133Z,9.70
2024-02-29T02:15:13.247Z,9.70
2024-02-29T02:17:42.503Z,9.80
2024-02-29T02:20:18.175Z,9.70
2024-02-29T02:22:46.700Z,9.80
2024-02-29T02:25:14.908Z,9.80
2024-02-29T02:27:43.126Z,9.80
2024-02-29T02:30:12.316Z,9.70
2024-02-29T02:32:41.260Z,9.80
2024-02-29T02:35:10.226Z,9.80
2024-02-29T02:37:39.703Z,9.80
2024-02-29T02:40:09.887Z,9.80
2024-02-29T02:42:38.138Z,9.80
2024-02-29T02:45:07.089Z,9.80
2024-02-29T02:47:35.167Z,9.80
2024-02-29T02:50:03.320Z,9.80
2024-02-29T02:52:31.418Z,9.90
2024-02-29T02:55:00.929Z,9.90
2024-02-29T02:57:29.021Z,9.90
2024-02-29T02:59:57.172Z,9.80
2024-02-29T03:02:25.389Z,9.80
2024-02-29T03:04:53.627Z,9.90
2024-02-29T03:07:21.708Z,9.90
2024-02-29T03:09:49.777Z,9.90
2024-02-29T03:12:19.228Z,9.80
2024-02-29T03:14:47.293Z,9.80
2024-02-29T03:17:15.360Z,9.80
2024-02-29T03:19:43.427Z,9.80
2024-02-29T03:22:11.611Z,9.80
2024-02-29T03:24:43.352Z,9.80
2024-02-29T03:27:12.414Z,9.90
2024-02-29T03:29:42.204Z,9.90
2024-02-29T03:32:11.535Z,9.80
2024-02-29T03:34:40.230Z,9.90
2024-02-29T03:37:09.091Z,9.90
2024-02-29T03:39:37.373Z,9.90
2024-02-29T03:42:05.524Z,9.90
2024-02-29T03:44:33.571Z,9.90
2024-02-29T03:47:02.999Z,9.90
2024-02-29T03:49:31.060Z,9.90
2024-02-29T03:51:59.168Z,9.90
2024-02-29T03:54:27.322Z,9.90
2024-02-29T03:56:55.607Z,9.90
2024-02-29T03:59:23.811Z,9.90
2024-02-29T04:01:52.567Z,9.90
2024-02-29T04:04:22.607Z,9.90
2024-02-29T04:06:51.036Z,9.90
2024-02-29T04:09:19.164Z,9.90
2024-02-29T04:11:47.389Z,9.90
2024-02-29T04:14:15.547Z,9.80
2024-02-29T04:16:43.665Z,9.80
2024-02-29T04:19:11.809Z,9.80
2024-02-29T04:21:44.871Z,9.80
2024-02-29T04:24:13.016Z,9.80
2024-02-29T04:26:41.087Z,9.80
2024-02-29T04:29:09.199Z,9.80
2024-02-29T04:31:37.243Z,9.70
2024-02-29T04:34:05.359Z,9.80
2024-02-29T04:36:33.508Z,9.80
2024-02-29T04:39:02.940Z,9.70
2024-02-29T04:41:31.014Z,9.70
2024-02-29T04:43:59.102Z,9.70
2024-02-29T04:46:27.194Z,9.70
2024-02-29T04:48:55.282Z,9.70
2024-02-29T04:51:24.232Z,9.70
2024-02-29T04:53:52.314Z,9.70
2024-02-29T04:56:21.772Z,9.70
2024-02-29T04:58:49.981Z,9.60
2024-02-29T05:01:18.975Z,9.70
2024-02-29T05:03:47.194Z,9.70
2024-02-29T05:06:17.585Z,9.70
2024-02-29T05:08:45.884Z,9.60
2024-02-29T05:11:14.155Z,9.70
2024-02-29T05:13:43.781Z,9.60
2024-02-29T05:16:11.999Z,9.60
2024-02-29T05:18:40.160Z,9.60
2024-02-29T05:21:08.301Z,9.60
2024-02-29T05:23:36.359Z,9.50
2024-02-29T05:26:05.377Z,9.50
2024-02-29T05:28:33.496Z,9.50
2024-02-29T05:31:03.304Z,9.50
2024-02-29T05:33:31.437Z,9.60
2024-02-29T05:35:59.646Z,9.60
2024-02-29T05:38:27.863Z,9.60
2024-02-29T05:40:55.943Z,9.60
2024-02-29T05:43:24.067Z,9.60
2024-02-29T05:45:52.169Z,9.50
2024-02-29T05:48:21.615Z,9.60
2024-02-29T05:50:49.717Z,9.60
2024-02-29T05:53:17.774Z,9.60
2024-02-29T05:55:45.850Z,9.50
2024-02-29T05:58:14.151Z,9.50
2024-02-29T06:00:43.099Z,9.60
2024-02-29T06:03:11.273Z,9.60
2024-02-29T06:05:41.174Z,9.60
2024-02-29T06:08:09.245Z,9.60
2024-02-29T06:10:37.302Z,9.60
2024-02-29T06:13:05.617Z,9.60
2024-02-29T06:15:34.244Z,9.60
2024-02-29T06:18:02.395Z,9.60
2024-02-29T06:20:30.553Z,9.50
2024-02-29T06:23:00.217Z,9.60
2024-02-29T06:25:28.339Z,9.60
2024-02-29T06:27:58.228Z,9.60
2024-02-29T06:30:33.957Z,9.60
2024-02-29T06:33:03.291Z,9.60
2024-02-29T06:35:31.443Z,9.60
2024-02-29T06:38:00.825Z,9.60
2024-02-29T06:40:28.926Z,9.60
2024-02-29T06:42:57.311Z,9.70
2024-02-29T06:45:25.403Z,9.70
2024-02-29T06:47:56.328Z,9.60
2024-02-29T06:50:24.406Z,9.70
2024-02-29T06:52:54.664Z,9.70
2024-02-29T06:55:24.532Z,9.60
2024-02-29T06:57:52.778Z,9.60
2024-02-29T07:00:21.396Z,9.70
2024-02-29T07:02:49.469Z,9.80
2024-02-29T07:05:17.977Z,9.70
2024-02-29T07:07:46.068Z,9.70
2024-02-29T07:10:14.877Z,9.80
2024-02-29T07:12:44.518Z,9.70
2024-02-29T07:15:12.735Z,9.80
2024-02-29T07:17:40.880Z,9.80
2024-02-29T07:20:11.771Z,9.80
2024-02-29T07:22:39.818Z,9.80
2024-02-29T07:25:09.943Z,9.80
2024-02-29T07:27:40.019Z,9.80
2024-02-29T07:30:10.601Z,9.80
2024-02-29T07:32:39.073Z,9.80
2024-02-29T07:35:08.094Z,9.80
2024-02-29T07:37:39.844Z,9.90
2024-02-29T07:40:09.500Z,9.80
2024-02-29T07:42:39.587Z,9.90
2024-02-29T07:45:10.417Z,9.80
2024-02-29T07:47:39.661Z,9.90
2024-02-29T07:50:10.739Z,9.90
2024-02-29T07:52:39.469Z,9.90
2024-02-29T07:55:07.910Z,9.80
2024-02-29T07:57:36.219Z,9.80
2024-02-29T08:00:05.655Z,9.80
2024-02-29T08:02:35.104Z,9.90
2024-02-29T08:05:03.448Z,9.90
2024-02-29T08:07:32.400Z,9.90
2024-02-29T08:10:00.579Z,9.90
2024-02-29T08:12:28.677Z,9.90
2024-02-29T08:14:56.734Z,9.90
2024-02-29T08:17:28.168Z,9.90
2024-02-29T08:19:57.876Z,9.90
2024-02-29T08:22:26.734Z,9.80
2024-02-29T08:24:54.881Z,9.80
2024-02-29T08:27:22.962Z,9.80
2024-02-29T08:29:51.030Z,9.80
2024-02-29T08:32:19.229Z,9.90
2024-02-29T08:34:47.408Z,9.80
2024-02-29T08:37:16.906Z,9.90
2024-02-29T08:39:45.019Z,10.00
2024-02-29T08:42:13.304Z,9.90
2024-02-29T08:44:44.504Z,9.90
2024-02-29T08:47:12.648Z,9.90
2024-02-29T08:49:40.720Z,9.90
2024-02-29T08:52:09.660Z,9.90
2024-02-29T08:54:39.346Z,9.80
2024-02-29T08:57:08.586Z,9.90
2024-02-29T08:59:36.777Z,9.90
2024-02-29T09:02:08.801Z,9.90
2024-02-29T09:04:37.079Z,9.90
2024-02-29T09:07:05.368Z,9.90
2024-02-29T09:09:33.480Z,9.90
2024-02-29T09:12:07.323Z,9.90
2024-02-29T09:14:36.719Z,9.90
2024-02-29T09:17:05.628Z,9.90
2024-02-29T09:19:33.843Z,9.90
2024-02-29T09:22:02.091Z,9.90
2024-02-29T09:24:30.156Z,10.00
2024-02-29T09:26:58.282Z,10.00
2024-02-29T09:29:30.519Z,10.00
2024-02-29T09:32:00.769Z,10.10
2024-02-29T09:34:29.494Z,10.10
2024-02-29T09:36:57.610Z,10.10
2024-02-29T09:39:25.721Z,10.10
2024-02-29T09:42:08.873Z,10.10
2024-02-29T09:44:44.443Z,10.00
2024-02-29T09:47:14.057Z,10.10
2024-02-29T09:49:43.576Z,10.10
2024-02-29T09:52:14.600Z,10.20
2024-02-29T09:54:42.930Z,10.20
2024-02-29T09:57:13.391Z,10.20
2024-02-29T09:59:44.873Z,10.30
2024-02-29T10:02:16.719Z,10.30
2024-02-29T10:04:45.115Z,10.30
2024-02-29T10:07:13.226Z,10.40
2024-02-29T10:09:41.421Z,10.30
2024-02-29T10:12:09.701Z,10.40
2024-02-29T10:14:37.812Z,10.40
2024-02-29T10:17:07.336Z,10.40
2024-02-29T10:19:39.337Z,10.40
2024-02-29T10:24:35.546Z,10.40
2024-02-29T10:27:04.256Z,10.50
2024-02-29T10:29:32.409Z,10.40
2024-02-29T10:32:00.711Z,10.40
2024-02-29T10:34:30.176Z,10.40
2024-02-29T10:36:58.296Z,10.50
2024-02-29T10:39:27.360Z,10.50
2024-02-29T10:41:59.691Z,10.50
2024-02-29T10:44:32.917Z,10.50
2024-02-29T10:47:04.352Z,10.50
2024-02-29T10:49:39.985Z,10.50
2024-02-29T10:52:11.781Z,10.50
2024-02-29T10:54:44.411Z,10.50
2024-02-29T10:57:17.100Z,10.40
2024-02-29T10:59:53.689Z,10.50
2024-02-29T11:02:22.764Z,10.50
2024-02-29T11:04:52.955Z,10.50
2024-02-29T11:07:22.454Z,10.40
2024-02-29T11:09:50.663Z,10.50
2024-02-29T11:12:20.787Z,10.50
2024-02-29T11:14:51.928Z,10.50
2024-02-29T11:17:20.220Z,10.50
2024-02-29T11:19:58.766Z,10.50
2024-02-29T11:22:33.934Z,10.50
2024-02-29T11:25:02.226Z,10.50
2024-02-29T11:27:36.343Z,10.50
2024-02-29T11:30:05.724Z,10.50
2024-02-29T11:32:35.082Z,10.40
2024-02-29T11:35:05.420Z,10.40
2024-02-29T11:37:36.428Z,10.40
2024-02-29T11:40:06.731Z,10.40
2024-02-29T11:42:36.758Z,10.40
2024-02-29T11:45:05.426Z,10.40
2024-02-29T11:47:34.108Z,10.40
2024-02-29T11:50:02.889Z,10.40
2024-02-29T11:52:32.597Z,10.40
2024-02-29T11:55:01.716Z,10.40
2024-02-29T11:57:29.973Z,10.40
2024-02-29T11:59:58.078Z,10.40
2024-02-29T12:02:26.139Z,10.40
2024-02-29T12:04:54.294Z,10.40
2024-02-29T12:07:22.684Z,10.50
2024-02-29T12:09:52.555Z,10.50
2024-02-29T12:12:22.463Z,10.50
2024-02-29T12:14:50.645Z,10.50
2024-02-29T12:17:20.039Z,10.50
2024-02-29T12:19:48.201Z,10.40
2024-02-29T12:22:16.291Z,10.40
2024-02-29T12:24:44.647Z,10.40
2024-02-29T12:27:14.189Z,10.40
2024-02-29T12:29:43.013Z,10.40
2024-02-29T12:32:12.533Z,10.30
2024-02-29T12:34:43.182Z,10.30
2024-02-29T12:37:13.222Z,10.40
2024-02-29T12:39:41.833Z,10.40
2024-02-29T12:42:11.156Z,10.40
2024-02-29T12:44:41.139Z,10.40
2024-02-29T12:47:09.170Z,10.40
2024-02-29T12:49:37.217Z,10.40
2024-02-29T12:52:05.649Z,10.50
2024-02-29T12:54:34.733Z,10.40
2024-02-29T12:57:02.869Z,10.40
2024-02-29T12:59:30.946Z,10.50
2024-02-29T13:02:01.207Z,10.40
2024-02-29T13:04:29.364Z,10.30
2024-02-29T13:06:58.284Z,10.30
2024-02-29T13:09:26.503Z,10.40
2024-02-29T13:11:54.706Z,10.40
2024-02-29T13:14:22.760Z,10.40
2024-02-29T13:16:51.438Z,10.40
2024-02-29T13:19:20.982Z,10.40
2024-02-29T13:21:49.098Z,10.40
2024-02-29T13:24:17.181Z,10.50
2024-02-29T13:26:45.326Z,10.50
2024-02-29T13:29:14.087Z,10.50
2024-02-29T13:31:42.162Z,10.60
2024-02-29T13:34:10.443Z,10.50
2024-02-29T13:36:39.894Z,10.60
2024-02-29T13:39:10.540Z,10.60
2024-02-29T13:41:38.614Z,10.60
2024-02-29T13:44:06.686Z,10.60
2024-02-29T13:46:34.916Z,10.60
2024-02-29T13:49:20.777Z,10.60
2024-02-29T13:51:52.312Z,10.60
2024-02-29T13:54:20.419Z,10.70
2024-02-29T13:56:48.757Z,10.70
2024-02-29T13:59:17.063Z,10.80
2024-02-29T14:01:45.253Z,10.80
2024-02-29T14:04:13.412Z,10.70
2024-02-29T14:06:41.716Z,10.70
2024-02-29T14:09:12.457Z,10.70
2024-02-29T14:11:41.001Z,10.70
2024-02-29T14:14:10.066Z,10.80
2024-02-29T14:16:38.182Z,10.70
2024-02-29T14:19:06.333Z,10.70
2024-02-29T14:21:35.357Z,10.70
2024-02-29T14:24:03.480Z,10.70
2024-02-29T14:26:33.015Z,10.70
2024-02-29T14:29:01.143Z,10.70
2024-02-29T14:31:29.624Z,10.70
2024-02-29T14:33:57.738Z,10.70
2024-02-29T14:36:26.100Z,10.80
2024-02-29T14:38:54.264Z,10.70
2024-02-29T14:41:22.324Z,10.80
2024-02-29T14:43:51.955Z,10.70
2024-02-29T14:46:20.155Z,10.70
2024-02-29T14:48:48.310Z,10.80
2024-02-29T14:51:16.466Z,10.80
2024-02-29T14:53:50.624Z,10.80
2024-02-29T14:56:19.024Z,10.90
2024-02-29T14:58:47.115Z,10.90
2024-02-29T15:01:16.666Z,10.90
2024-02-29T15:03:45.065Z,10.80
2024-02-29T15:06:13.255Z,10.80
2024-02-29T15:08:41.550Z,10.70
2024-02-29T15:11:09.782Z,10.70
2024-02-29T15:13:38.363Z,10.80
2024-02-29T15:16:07.041Z,10.80
2024-02-29T15:18:37.295Z,10.80
2024-02-29T15:21:05.864Z,10.70
2024-02-29T15:23:33.922Z,10.70
2024-02-29T15:26:02.116Z,10.70
2024-02-29T15:28:33.124Z,10.80
2024-02-29T15:31:01.502Z,10.90
2024-02-29T15:33:29.642Z,10.90
2024-02-29T15:35:59.226Z,10.80
2024-02-29T15:38:27.346Z,10.80
2024-02-29T15:40:55.374Z,10.80
2024-02-29T15:43:23.550Z,10.90
2024-02-29T15:45:51.781Z,10.90
2024-02-29T15:48:19.890Z,10.90
2024-02-29T15:50:49.320Z,10.90
2024-02-29T15:53:18.933Z,11.00
2024-02-29T15:55:49.346Z,10.90
2024-02-29T15:58:17.830Z,10.90
2024-02-29T16:00:46.072Z,10.90
2024-02-29T16:03:14.213Z,10.80
2024-02-29T16:05:42.830Z,10.90
2024-02-29T16:08:10.896Z,10.90
2024-02-29T16:10:40.409Z,10.90
2024-02-29T16:13:10.883Z,10.80
2024-02-29T16:15:39.112Z,10.80
2024-02-29T16:18:10.703Z,10.80
2024-02-29T16:20:38.781Z,10.90
2024-02-29T16:23:06.886Z,10.90
2024-02-29T16:25:35.034Z,10.80
2024-02-29T16:28:05.665Z,10.90
2024-02-29T16:30:34.455Z,10.90
2024-02-29T16:33:02.616Z,10.90
2024-02-29T16:35:30.682Z,10.80
2024-02-29T16:37:59.756Z,10.80
2024-02-29T16:40:28.051Z,10.80
2024-02-29T16:42:56.255Z,10.90
2024-02-29T16:45:25.688Z,10.90
2024-02-29T16:47:53.895Z,10.90
2024-02-29T16:50:22.016Z,10.90
2024-02-29T16:52:49.768Z,10.80
2024-02-29T16:55:17.897Z,10.80
2024-02-29T16:57:46.184Z,10.80
2024-02-29T17:00:19.007Z,10.90
2024-02-29T17:02:48.428Z,10.80
2024-02-29T17:05:16.683Z,10.80
2024-02-29T17:07:45.344Z,10.90
2024-02-29T17:10:14.296Z,10.90
2024-02-29T17:12:42.746Z,10.90
2024-02-29T17:15:11.704Z,10.80
2024-02-29T17:17:39.910Z,10.80
2024-02-29T17:20:10.290Z,10.80
2024-02-29T17:22:38.546Z,10.80
2024-02-29T17:25:07.954Z,10.80
2024-02-29T17:27:37.349Z,10.90
2024-02-29T17:30:06.111Z,10.80
2024-02-29T17:32:34.379Z,10.80
2024-02-29T17:35:02.676Z,10.80
2024-02-29T17:37:32.113Z,10.80
2024-02-29T17:40:00.436Z,10.80
2024-02-29T17:42:29.560Z,10.70
2024-02-29T17:44:57.717Z,10.70
2024-02-29T17:47:25.839Z,10.70
2024-02-29T17:49:54.009Z,10.70
2024-02-29T17:52:22.570Z,10.70
2024-02-29T17:54:52.247Z,10.70
2024-02-29T17:57:20.710Z,10.70
2024-02-29T17:59:48.756Z,10.70
2024-02-29T18:02:16.883Z,10.70
2024-02-29T18:04:45.036Z,10.70
2024-02-29T18:07:13.186Z,10.70
2024-02-29T18:09:42.235Z,10.70
2024-02-29T18:12:11.823Z,10.60
2024-02-29T18:14:39.908Z,10.70
2024-02-29T18:17:07.963Z,10.60
2024-02-29T18:19:36.024Z,10.70
2024-02-29T18:22:04.304Z,10.80
2024-02-29T18:24:32.469Z,10.80
2024-02-29T18:27:01.215Z,10.70
2024-02-29T18:29:30.725Z,10.70
2024-02-29T18:31:58.873Z,10.70
2024-02-29T18:34:27.194Z,10.70
2024-02-29T18:36:55.421Z,10.70
2024-02-29T18:39:24.010Z,10.70
2024-02-29T18:41:52.113Z,10.80
2024-02-29T18:44:20.190Z,10.70
2024-02-29T18:46:50.112Z,10.70
2024-02-29T18:49:20.889Z,10.80
2024-02-29T18:51:51.096Z,10.70
2024-02-29T18:54:19.976Z,10.70
2024-02-29T18:56:49.269Z,10.70
2024-02-29T18:59:17.565Z,10.70
2024-02-29T19:01:46.299Z,10.70
2024-02-29T19:04:18.201Z,10.70
2024-02-29T19:06:46.928Z,10.70
2024-02-29T19:09:15.076Z,10.80
2024-02-29T19:11:43.167Z,10.80
2024-02-29T19:14:11.395Z,10.80
2024-02-29T19:16:45.888Z,10.70
2024-02-29T19:19:15.500Z,10.70
2024-02-29T19:21:43.643Z,10.80
2024-02-29T19:24:12.483Z,10.80
2024-02-29T19:26:40.776Z,10.80
2024-02-29T19:29:08.881Z,10.70
2024-02-29T19:31:36.989Z,10.70
2024-02-29T19:34:06.121Z,10.70
2024-02-29T19:36:35.666Z,10.70
2024-02-29T19:39:04.080Z,10.80
2024-02-29T19:41:32.240Z,10.80
2024-02-29T19:44:00.337Z,10.80
2024-02-29T19:46:28.486Z,10.80
2024-02-29T19:48:56.648Z,10.80
2024-02-29T19:51:24.865Z,10.80
2024-02-29T19:53:54.285Z,10.90
2024-02-29T19:56:22.387Z,10.90
2024-02-29T19:58:50.453Z,10.90
2024-02-29T20:01:18.608Z,10.90
2024-02-29T20:03:46.806Z,10.80
2024-02-29T20:06:14.949Z,10.80
2024-02-29T20:08:43.692Z,10.90
2024-02-29T20:11:13.141Z,10.90
2024-02-29T20:13:41.239Z,10.90
2024-02-29T20:16:09.822Z,10.90
2024-02-29T20:18:37.945Z,10.90
2024-02-29T20:21:06.690Z,10.90
2024-02-29T20:23:35.684Z,10.90
2024-02-29T20:26:03.841Z,10.90
2024-02-29T20:28:33.354Z,10.90
2024-02-29T20:31:02.478Z,11.00
2024-02-29T20:33:30.569Z,10.90
2024-02-29T20:35:58.822Z,10.90
2024-02-29T20:38:26.906Z,10.90
2024-02-29T20:40:54.983Z,10.90
2024-02-29T20:43:23.147Z,10.90
2024-02-29T20:45:52.849Z,11.00
2024-02-29T20:48:20.962Z,10.90
2024-02-29T20:50:49.483Z,10.90
2024-02-29T20:53:17.654Z,11.00
2024-02-29T20:55:45.837Z,11.00
2024-02-29T20:58:14.204Z,11.00
2024-02-29T21:00:42.336Z,10.90
2024-02-29T21:03:11.876Z,10.90
2024-02-29T21:05:41.221Z,10.90
2024-02-29T21:08:09.521Z,10.90
2024-02-29T21:10:37.870Z,10.90
2024-02-29T21:13:06.189Z,10.90
2024-02-29T21:15:34.376Z,10.90
2024-02-29T21:18:03.974Z,10.90
2024-02-29T21:20:33.535Z,11.00
2024-02-29T21:23:01.806Z,11.00
2024-02-29T21:25:30.384Z,11.00
2024-02-29T21:27:58.797Z,11.00
2024-02-29T21:30:26.949Z,11.00
2024-02-29T21:32:55.100Z,10.90
2024-02-29T21:35:24.112Z,10.90
2024-02-29T21:37:53.652Z,10.90
2024-02-29T21:40:21.844Z,11.00
2024-02-29T21:42:51.876Z,10.90
2024-02-29T21:45:21.155Z,10.90
2024-02-29T21:47:49.393Z,11.00
2024-02-29T21:50:17.937Z,10.90
2024-02-29T21:52:46.002Z,10.90
2024-02-29T21:55:17.036Z,11.10
2024-02-29T21:57:45.285Z,11.00
2024-02-29T22:00:15.000Z,11.00
2024-02-29T22:02:43.215Z,11.00
2024-02-29T22:05:11.847Z,11.00
2024-02-29T22:07:40.182Z,11.10
2024-02-29T22:12:38.885Z,11.00
2024-02-29T22:15:08.999Z,11.00
2024-02-29T22:17:37.872Z,11.00
2024-02-29T22:20:08.388Z,11.00
2024-02-29T22:22:36.628Z,11.10
2024-02-29T22:25:05.208Z,11.10
2024-02-29T22:27:33.288Z,11.00
2024-02-29T22:30:02.742Z,11.10
2024-02-29T22:32:30.800Z,11.10
2024-02-29T22:34:58.917Z,11.00
2024-02-29T22:37:27.059Z,11.10
2024-02-29T22:39:55.233Z,11.10
2024-02-29T22:42:23.317Z,11.10
2024-02-29T22:44:51.332Z,11.10
2024-02-29T22:47:21.094Z,11.10
2024-02-29T22:49:49.188Z,11.10
2024-02-29T22:52:17.323Z,11.10
2024-02-29T22:54:45.452Z,11.10
2024-02-29T22:57:13.499Z,11.10
2024-02-29T22:59:41.638Z,11.10
2024-02-29T23:02:09.755Z,11.10
2024-02-29T23:04:39.244Z,11.10
2024-02-29T23:07:07.310Z,11.10
2024-02-29T23:09:35.547Z,11.10
2024-02-29T23:12:03.574Z,11.00
2024-02-29T23:14:31.632Z,10.80
2024-02-29T23:16:59.713Z,10.20
2024-02-29T23:19:27.944Z,9.80
2024-02-29T23:21:57.495Z,9.60
2024-02-29T23:24:25.532Z,9.40
2024-02-29T23:26:53.701Z,9.30
2024-02-29T23:29:21.826Z,9.20
2024-02-29T23:31:49.926Z,9.00
2024-02-29T23:34:18.869Z,8.90
2024-02-29T23:36:48.668Z,8.80
2024-02-29T23:39:18.340Z,8.70
2024-02-29T23:41:46.373Z,8.70
2024-02-29T23:44:14.462Z,8.60
2024-02-29T23:46:43.387Z,8.50
2024-02-29T23:49:11.471Z,8.50
2024-02-29T23:51:39.595Z,8.50
2024-02-29T23:54:07.647Z,8.40
2024-02-29T23:56:37.171Z,8.40
2024-02-29T23:59:05.251Z,8.40
